Current Weather

Hollister Muni

Hollister, California (KCVH)

Report from: Wednesday, May 29, 2024 8:55 AM UTC
Current time: Wednesday, May 29, 2024 9:20 AM UTC

Nearby weather – Weather history – Daily summaries
Weather forecast

Temperature9.0°C (48.2°F)
Dew point7.0°C (44.6°F)
Winds Calm
Visibility10 mi. (16.1 km)
Clouds Sky clear
Altimeter30.11 in.Hg (1020 mB)
Relative humidity87 %
Density altitude-791 ft. (-241 m)
Remarks Fully automated report
Flight conditions Visual Meteorological Conditions
Raw dataKCVH 290855Z AUTO 00000KT 10SM CLR 09/07 A3011 RMK A01
An error has occurred. This application may no longer respond until reloaded. Reload 🗙